createdAt,value
2022-08-12T00:02:02.139Z,21.78
2022-08-12T00:04:49.653Z,21.75
2022-08-12T00:07:49.489Z,21.71
2022-08-12T00:10:55.658Z,21.67
2022-08-12T00:14:00.625Z,21.62
2022-08-12T00:17:00.925Z,21.60
2022-08-12T00:20:06.579Z,21.57
2022-08-12T00:23:07.858Z,21.50
2022-08-12T00:26:23.795Z,21.52
2022-08-12T00:29:23.865Z,21.51
2022-08-12T00:32:35.897Z,21.51
2022-08-12T00:35:36.720Z,21.48
2022-08-12T00:38:41.591Z,21.47
2022-08-12T00:41:43.446Z,21.43
2022-08-12T00:44:34.597Z,21.41
2022-08-12T00:47:24.084Z,21.38
2022-08-12T00:50:05.617Z,21.36
2022-08-12T00:52:48.011Z,21.35
2022-08-12T00:55:34.553Z,21.29
2022-08-12T00:58:26.683Z,21.28
2022-08-12T01:01:11.655Z,21.23
2022-08-12T01:04:17.583Z,21.29
2022-08-12T01:07:26.569Z,21.17
2022-08-12T01:10:33.152Z,21.16
2022-08-12T01:13:19.073Z,21.07
2022-08-12T01:16:08.577Z,21.08
2022-08-12T01:18:55.562Z,20.95
2022-08-12T01:22:24.550Z,20.97
2022-08-12T01:25:22.048Z,20.99
2022-08-12T01:28:10.542Z,20.97
2022-08-12T01:30:51.690Z,20.95
2022-08-12T01:34:36.584Z,20.91
2022-08-12T01:37:08.639Z,20.89
2022-08-12T01:40:34.913Z,20.91
2022-08-12T01:43:10.518Z,20.92
2022-08-12T01:45:59.491Z,20.93
2022-08-12T01:49:00.535Z,20.84
2022-08-12T01:52:20.361Z,20.90
2022-08-12T01:54:59.518Z,20.85
2022-08-12T01:57:58.431Z,20.80
2022-08-12T02:00:56.201Z,20.81
2022-08-12T02:04:07.548Z,20.79
2022-08-12T02:07:29.129Z,20.81
2022-08-12T02:10:50.213Z,20.70
2022-08-12T02:14:17.471Z,20.62
2022-08-12T02:17:55.901Z,20.65
2022-08-12T02:20:34.275Z,20.59
2022-08-12T02:23:29.286Z,20.54
2022-08-12T02:26:22.433Z,20.54
2022-08-12T02:29:03.892Z,20.55
2022-08-12T02:31:52.513Z,20.48
2022-08-12T02:34:34.618Z,20.43
2022-08-12T02:37:22.460Z,20.45
2022-08-12T02:40:03.883Z,20.38
2022-08-12T02:42:52.450Z,20.38
2022-08-12T02:45:56.801Z,20.26
2022-08-12T02:49:04.483Z,20.20
2022-08-12T02:51:52.445Z,20.12
2022-08-12T03:12:33.701Z,19.63
2022-08-12T03:15:24.044Z,19.83
2022-08-12T03:18:28.664Z,19.91
2022-08-12T03:21:09.126Z,19.99
2022-08-12T03:23:58.574Z,19.97
2022-08-12T03:26:40.095Z,19.98
2022-08-12T03:29:29.595Z,20.04
2022-08-12T03:32:10.392Z,20.06
2022-08-12T03:35:40.373Z,20.10
2022-08-12T03:38:29.560Z,20.12
2022-08-12T03:41:36.871Z,20.20
2022-08-12T03:44:51.521Z,20.14
2022-08-12T03:48:19.233Z,20.12
2022-08-12T03:51:26.580Z,20.18
2022-08-12T03:54:32.555Z,20.30
2022-08-12T03:57:31.691Z,20.41
2022-08-12T04:00:32.742Z,20.37
2022-08-12T04:03:31.942Z,20.47
2022-08-12T04:06:18.534Z,20.58
2022-08-12T04:09:20.464Z,20.86
2022-08-12T04:12:26.158Z,21.06
2022-08-12T04:15:14.562Z,21.50
2022-08-12T04:18:06.552Z,21.77
2022-08-12T04:20:55.536Z,21.78
2022-08-12T04:23:48.384Z,22.32
2022-08-12T04:26:29.517Z,22.46
2022-08-12T04:29:17.499Z,22.71
2022-08-12T04:31:57.829Z,23.08
2022-08-12T04:34:45.527Z,23.02
2022-08-12T04:37:58.905Z,23.17
2022-08-12T04:40:38.681Z,23.13
2022-08-12T04:44:01.423Z,23.24
2022-08-12T04:46:30.569Z,23.65
2022-08-12T04:49:21.450Z,23.45
2022-08-12T04:52:10.450Z,23.96
2022-08-12T04:54:52.140Z,24.48
2022-08-12T04:57:38.490Z,24.48
2022-08-12T05:00:25.484Z,24.77
2022-08-12T05:03:05.636Z,24.47
2022-08-12T05:05:53.492Z,24.92
2022-08-12T05:08:34.556Z,24.93
2022-08-12T05:11:21.447Z,25.19
2022-08-12T05:14:12.473Z,25.61
2022-08-12T05:17:01.449Z,25.80
2022-08-12T05:19:48.452Z,25.76
2022-08-12T05:22:38.174Z,26.11
2022-08-12T05:25:26.454Z,25.97
2022-08-12T05:28:07.140Z,25.82
2022-08-12T05:30:54.462Z,25.88
2022-08-12T05:33:38.430Z,26.46
2022-08-12T05:36:27.430Z,26.82
2022-08-12T05:39:07.903Z,27.05
2022-08-12T05:41:54.426Z,27.78
2022-08-12T05:44:41.455Z,26.87
2022-08-12T05:47:52.973Z,26.65
2022-08-12T05:50:35.428Z,27.21
2022-08-12T05:53:22.422Z,27.28
2022-08-12T05:56:03.012Z,27.41
2022-08-12T05:58:49.409Z,27.94
2022-08-12T06:02:12.642Z,28.38
2022-08-12T06:04:37.416Z,28.48
2022-08-12T06:07:37.356Z,28.23
2022-08-12T06:10:39.401Z,28.86
2022-08-12T06:13:52.609Z,29.59
2022-08-12T06:16:28.762Z,30.14
2022-08-12T06:19:16.421Z,30.03
2022-08-12T06:21:56.634Z,31.00
2022-08-12T06:24:43.419Z,30.30
2022-08-12T06:27:23.489Z,30.80
2022-08-12T06:30:14.369Z,30.36
2022-08-12T06:33:21.507Z,29.23
2022-08-12T06:36:04.854Z,28.37
2022-08-12T06:38:51.392Z,27.23
2022-08-12T06:42:25.301Z,27.28
2022-08-12T06:44:57.395Z,27.57
2022-08-12T06:47:37.932Z,27.68
2022-08-12T06:50:24.389Z,28.20
2022-08-12T06:53:05.620Z,28.26
2022-08-12T06:55:57.758Z,29.10
2022-08-12T06:58:46.342Z,28.24
2022-08-12T07:01:34.337Z,28.08
2022-08-12T07:04:39.069Z,28.29
2022-08-12T07:07:19.441Z,28.58
2022-08-12T07:10:08.438Z,28.34
2022-08-12T07:12:55.502Z,28.61
2022-08-12T07:15:37.336Z,28.89
2022-08-12T07:18:26.342Z,29.05
2022-08-12T07:21:15.350Z,28.68
2022-08-12T07:24:09.333Z,29.20
2022-08-12T07:26:49.525Z,29.48
2022-08-12T07:30:02.720Z,29.56
2022-08-12T07:32:44.317Z,29.19
2022-08-12T07:35:24.397Z,29.63
2022-08-12T07:38:32.407Z,29.70
2022-08-12T07:41:26.480Z,29.83
2022-08-12T07:44:15.305Z,29.21
2022-08-12T07:46:55.396Z,29.27
2022-08-12T07:50:03.438Z,29.45
2022-08-12T07:52:45.320Z,29.95
2022-08-12T07:55:25.553Z,30.35
2022-08-12T07:58:12.273Z,30.54
2022-08-12T08:01:01.282Z,30.50
2022-08-12T08:04:09.243Z,30.68
2022-08-12T08:06:51.305Z,30.72
2022-08-12T08:09:31.937Z,30.53
2022-08-12T08:12:36.304Z,30.91
2022-08-12T08:15:38.643Z,31.08
2022-08-12T08:18:26.837Z,30.66
2022-08-12T08:21:15.280Z,30.93
2022-08-12T08:24:13.894Z,32.05
2022-08-12T08:27:05.254Z,32.27
2022-08-12T08:29:45.579Z,31.56
2022-08-12T08:32:32.269Z,31.77
2022-08-12T08:35:14.718Z,29.71
2022-08-12T08:38:33.304Z,30.16
2022-08-12T08:42:17.697Z,31.08
2022-08-12T08:44:54.093Z,31.99
2022-08-12T08:48:00.128Z,31.46
2022-08-12T08:50:40.427Z,31.46
2022-08-12T08:53:27.258Z,31.49
2022-08-12T08:56:17.233Z,31.57
2022-08-12T08:59:04.747Z,32.42
2022-08-12T09:01:52.338Z,31.83
2022-08-12T09:05:12.658Z,32.27
2022-08-12T09:07:51.134Z,32.38
2022-08-12T09:10:45.436Z,31.38
2022-08-12T09:16:42.674Z,30.95
2022-08-12T09:19:33.454Z,32.40
2022-08-12T09:22:18.597Z,31.40
2022-08-12T09:25:07.433Z,31.97
2022-08-12T09:28:03.682Z,31.96
2022-08-12T09:31:04.196Z,33.47
2022-08-12T09:34:29.259Z,33.38
2022-08-12T09:37:19.327Z,33.03
2022-08-12T09:41:02.067Z,31.86
2022-08-12T09:43:26.582Z,32.27
2022-08-12T09:46:22.170Z,33.02
2022-08-12T09:49:16.497Z,33.47
2022-08-12T09:51:57.244Z,33.32
2022-08-12T09:54:44.214Z,33.04
2022-08-12T09:58:46.719Z,32.76
2022-08-12T10:00:52.176Z,32.50
2022-08-12T10:03:34.708Z,29.57
2022-08-12T10:06:54.289Z,32.98
2022-08-12T10:09:57.130Z,31.36
2022-08-12T10:13:07.775Z,31.02
2022-08-12T10:16:01.622Z,31.75
2022-08-12T10:18:56.199Z,31.87
2022-08-12T10:21:45.170Z,31.44
2022-08-12T10:24:32.140Z,29.24
2022-08-12T10:28:04.261Z,30.69
2022-08-12T10:30:44.181Z,31.29
2022-08-12T10:33:54.848Z,31.12
2022-08-12T10:36:40.595Z,31.07
2022-08-12T10:40:01.501Z,31.59
2022-08-12T10:43:04.135Z,31.32
2022-08-12T10:45:46.042Z,31.96
2022-08-12T10:48:33.930Z,30.94
2022-08-12T10:52:02.982Z,30.99
2022-08-12T10:54:29.149Z,30.94
2022-08-12T10:57:18.238Z,28.88
2022-08-12T11:00:34.470Z,29.38
2022-08-12T11:04:27.680Z,29.15
2022-08-12T11:07:09.658Z,30.06
2022-08-12T11:09:55.547Z,30.48
2022-08-12T11:12:59.950Z,29.61
2022-08-12T11:16:02.592Z,30.24
2022-08-12T11:18:48.130Z,29.36
2022-08-12T11:21:57.130Z,29.67
2022-08-12T11:24:42.107Z,29.74
2022-08-12T11:27:38.224Z,30.02
2022-08-12T11:30:31.046Z,28.96
2022-08-12T11:33:24.439Z,28.04
2022-08-12T11:36:22.110Z,28.68
2022-08-12T11:39:05.136Z,28.84
2022-08-12T11:41:52.056Z,27.33
2022-08-12T11:44:43.117Z,26.33
2022-08-12T11:47:23.012Z,26.38
2022-08-12T11:50:11.696Z,26.55
2022-08-12T11:52:56.538Z,26.36
2022-08-12T11:55:46.732Z,26.09
2022-08-12T11:59:02.765Z,25.90
2022-08-12T12:02:04.784Z,25.82
2022-08-12T12:04:34.326Z,26.13
2022-08-12T12:07:21.062Z,26.21
2022-08-12T12:10:01.487Z,26.00
2022-08-12T12:12:50.754Z,25.81
2022-08-12T12:15:40.632Z,25.80
2022-08-12T12:18:34.050Z,25.46
2022-08-12T12:21:47.323Z,25.31
2022-08-12T12:24:25.023Z,25.15
2022-08-12T12:27:18.178Z,25.32
2022-08-12T12:30:19.470Z,25.19
2022-08-12T12:33:06.033Z,25.40
2022-08-12T12:36:18.581Z,25.31
2022-08-12T12:38:54.496Z,25.21
2022-08-12T12:42:43.904Z,25.37
2022-08-12T12:44:51.048Z,25.51
2022-08-12T12:47:34.228Z,25.48
2022-08-12T12:50:35.720Z,25.44
2022-08-12T12:54:06.598Z,25.43
2022-08-12T12:56:34.459Z,25.36
2022-08-12T12:59:54.996Z,25.27
2022-08-12T13:02:42.248Z,25.02
2022-08-12T13:05:45.982Z,24.88
2022-08-12T13:08:36.187Z,25.05
2022-08-12T13:11:22.980Z,25.24
2022-08-12T13:14:29.036Z,25.21
2022-08-12T13:17:19.840Z,25.21
2022-08-12T13:20:01.291Z,24.97
2022-08-12T13:22:48.015Z,24.67
2022-08-12T13:25:28.273Z,24.95
2022-08-12T13:28:30.008Z,25.00
2022-08-12T13:31:11.285Z,25.35
2022-08-12T13:34:34.279Z,25.49
2022-08-12T13:37:00.176Z,25.09
2022-08-12T13:39:47.017Z,25.02
2022-08-12T13:42:30.064Z,25.10
2022-08-12T13:45:17.011Z,25.01
2022-08-12T13:48:15.950Z,24.84
2022-08-12T13:51:00.344Z,24.90
2022-08-12T13:53:58.895Z,24.83
2022-08-12T13:56:49.902Z,24.98
2022-08-12T13:59:30.057Z,25.05
2022-08-12T14:02:34.967Z,24.72
2022-08-12T14:05:37.950Z,24.69
2022-08-12T14:08:22.961Z,24.59
2022-08-12T14:11:05.102Z,24.64
2022-08-12T14:14:04.888Z,24.92
2022-08-12T14:16:58.943Z,24.90
2022-08-12T14:20:05.952Z,24.88
2022-08-12T14:22:59.966Z,24.85
2022-08-12T14:26:01.925Z,24.82
2022-08-12T14:28:57.896Z,24.58
2022-08-12T14:31:43.028Z,24.85
2022-08-12T14:34:29.893Z,24.94
2022-08-12T14:37:56.817Z,24.85
2022-08-12T14:40:27.777Z,24.65
2022-08-12T14:43:14.897Z,24.50
2022-08-12T14:46:05.900Z,24.55
2022-08-12T14:48:51.462Z,24.72
2022-08-12T14:53:11.407Z,24.71
2022-08-12T14:56:59.885Z,24.78
2022-08-12T15:15:06.581Z,24.24
2022-08-12T15:17:46.468Z,24.47
2022-08-12T15:20:39.110Z,24.55
2022-08-12T15:23:22.693Z,24.40
2022-08-12T15:26:11.031Z,24.45
2022-08-12T15:29:01.397Z,24.37
2022-08-12T15:32:00.088Z,24.45
2022-08-12T15:34:49.862Z,24.36
2022-08-12T15:38:08.156Z,24.56
2022-08-12T15:40:48.249Z,24.65
2022-08-12T15:44:16.878Z,24.43
2022-08-12T15:46:37.435Z,24.14
2022-08-12T15:49:24.985Z,24.14
2022-08-12T15:52:05.531Z,24.02
2022-08-12T15:54:51.979Z,23.98
2022-08-12T15:57:38.978Z,24.15
2022-08-12T16:00:31.896Z,24.12
2022-08-12T16:03:25.486Z,23.94
2022-08-12T16:06:12.622Z,23.89
2022-08-12T16:09:03.954Z,23.95
2022-08-12T16:11:52.974Z,23.95
2022-08-12T16:14:39.971Z,24.11
2022-08-12T16:17:20.470Z,24.11
2022-08-12T16:20:33.471Z,24.07
2022-08-12T16:23:35.975Z,24.02
2022-08-12T16:26:27.291Z,24.01
2022-08-12T16:29:15.382Z,23.98
2022-08-12T16:32:02.952Z,24.07
2022-08-12T16:34:54.665Z,23.99
2022-08-12T16:38:24.162Z,24.12
2022-08-12T16:40:46.287Z,24.15
2022-08-12T16:43:35.952Z,24.15
2022-08-12T16:46:32.805Z,24.03
2022-08-12T16:49:20.908Z,24.00
2022-08-12T16:52:05.917Z,24.02
2022-08-12T16:54:59.941Z,23.99
2022-08-12T16:57:54.243Z,24.07
2022-08-12T17:00:40.974Z,24.02
2022-08-12T17:03:36.667Z,23.85
2022-08-12T17:06:19.491Z,23.82
2022-08-12T17:09:17.022Z,23.86
2022-08-12T17:11:57.260Z,23.89
2022-08-12T17:14:44.903Z,23.81
2022-08-12T17:17:39.439Z,23.89
2022-08-12T17:20:35.543Z,23.79
2022-08-12T17:23:21.380Z,23.86
2022-08-12T17:26:07.860Z,23.78
2022-08-12T17:28:55.881Z,23.75
2022-08-12T17:32:00.331Z,23.81
2022-08-12T17:34:55.883Z,23.65
2022-08-12T17:37:37.509Z,23.63
2022-08-12T17:40:35.826Z,23.74
2022-08-12T17:43:54.647Z,23.70
2022-08-12T17:46:33.348Z,23.76
2022-08-12T17:50:01.485Z,23.79
2022-08-12T17:52:14.910Z,23.75
2022-08-12T17:55:04.892Z,23.76
2022-08-12T17:58:06.530Z,23.74
2022-08-12T18:00:59.894Z,23.78
2022-08-12T18:03:57.678Z,23.83
2022-08-12T18:06:50.338Z,23.79
2022-08-12T18:09:37.869Z,23.70
2022-08-12T18:12:38.507Z,23.72
2022-08-12T18:16:05.697Z,23.61
2022-08-12T18:18:34.852Z,23.68
2022-08-12T18:21:21.854Z,23.73
2022-08-12T18:24:21.684Z,23.72
2022-08-12T18:27:27.971Z,23.56
2022-08-12T18:30:07.812Z,23.52
2022-08-12T18:32:59.485Z,23.56
2022-08-12T18:35:47.402Z,23.52
2022-08-12T18:38:39.811Z,23.51
2022-08-12T18:41:35.846Z,23.45
2022-08-12T18:44:17.896Z,23.42
2022-08-12T18:47:09.137Z,23.40
2022-08-12T18:49:49.749Z,23.38
2022-08-12T18:52:41.043Z,23.35
2022-08-12T18:55:27.753Z,23.31
2022-08-12T18:58:20.516Z,23.20
2022-08-12T19:01:08.702Z,23.16
2022-08-12T19:04:08.981Z,23.17
2022-08-12T19:06:55.802Z,23.18
2022-08-12T19:09:58.293Z,23.04
2022-08-12T19:12:58.269Z,22.94
2022-08-12T19:15:51.788Z,22.80
2022-08-12T19:18:40.420Z,22.74
2022-08-12T19:21:27.763Z,22.66
2022-08-12T19:24:26.497Z,22.52
2022-08-12T19:27:15.402Z,22.56
2022-08-12T19:30:06.142Z,22.53
2022-08-12T19:32:54.755Z,22.43
2022-08-12T19:36:06.612Z,22.38
2022-08-12T19:38:46.846Z,22.34
2022-08-12T19:42:00.910Z,22.29
2022-08-12T19:44:49.771Z,22.26
2022-08-12T19:47:38.850Z,22.27
2022-08-12T19:50:25.762Z,22.27
2022-08-12T19:53:07.941Z,22.24
2022-08-12T19:55:58.726Z,22.28
2022-08-12T19:58:38.869Z,22.25
2022-08-12T20:01:25.728Z,22.16
2022-08-12T20:04:20.750Z,22.18
2022-08-12T20:07:01.437Z,22.11
2022-08-12T20:09:53.718Z,22.11
2022-08-12T20:13:10.160Z,22.08
2022-08-12T20:15:51.143Z,22.03
2022-08-12T20:18:44.472Z,22.06
2022-08-12T20:21:41.018Z,22.06
2022-08-12T20:24:31.226Z,22.03
2022-08-12T20:27:29.256Z,22.08
2022-08-12T20:30:38.173Z,22.06
2022-08-12T20:33:56.401Z,22.04
2022-08-12T20:36:41.207Z,22.03
2022-08-12T20:39:52.023Z,22.02
2022-08-12T20:42:31.310Z,22.04
2022-08-12T20:45:13.715Z,22.03
2022-08-12T20:48:04.381Z,22.06
2022-08-12T20:50:47.613Z,21.99
2022-08-12T20:53:58.537Z,21.97
2022-08-12T20:56:45.951Z,21.92
2022-08-12T20:59:25.633Z,21.94
2022-08-12T21:02:24.172Z,21.90
2022-08-12T21:06:09.437Z,21.90
2022-08-12T21:08:35.657Z,21.88
2022-08-12T21:11:29.687Z,21.90
2022-08-12T21:14:39.859Z,21.88
2022-08-12T21:18:00.274Z,21.89
2022-08-12T21:20:31.650Z,21.88
2022-08-12T21:23:20.638Z,21.86
2022-08-12T21:26:01.569Z,21.88
2022-08-12T21:28:58.206Z,21.86
2022-08-12T21:32:36.603Z,21.84
2022-08-12T21:34:54.646Z,21.84
2022-08-12T21:37:37.476Z,21.82
2022-08-12T21:40:37.165Z,21.80
2022-08-12T21:43:39.017Z,21.79
2022-08-12T21:46:35.389Z,21.77
2022-08-12T21:49:53.993Z,21.79
2022-08-12T21:52:28.332Z,21.75
2022-08-12T21:55:23.657Z,21.67
2022-08-12T21:58:18.594Z,21.67
2022-08-12T22:01:05.651Z,21.64
2022-08-12T22:04:16.599Z,21.61
2022-08-12T22:06:59.263Z,21.58
2022-08-12T22:09:46.593Z,21.60
2022-08-12T22:12:39.775Z,21.58
2022-08-12T22:15:33.605Z,21.59
2022-08-12T22:18:14.001Z,21.57
2022-08-12T22:21:03.617Z,21.57
2022-08-12T22:24:05.050Z,21.52
2022-08-12T22:26:52.609Z,21.50
2022-08-12T22:29:58.569Z,21.50
2022-08-12T22:32:56.554Z,21.48
2022-08-12T22:35:55.660Z,21.48
2022-08-12T22:38:40.741Z,21.51
2022-08-12T22:41:47.571Z,21.45
2022-08-12T22:44:55.430Z,21.46
2022-08-12T22:47:55.731Z,21.48
2022-08-12T22:50:36.698Z,21.45
2022-08-12T22:53:25.561Z,21.46
2022-08-12T22:56:22.537Z,21.42
2022-08-12T22:59:17.559Z,21.46
2022-08-12T23:02:02.799Z,21.51
2022-08-12T23:04:49.547Z,21.45
2022-08-12T23:07:58.780Z,21.46
2022-08-12T23:10:37.161Z,21.46
2022-08-12T23:13:43.626Z,21.51
2022-08-12T23:16:41.513Z,21.51
2022-08-12T23:19:38.550Z,21.52
2022-08-12T23:22:36.750Z,21.57
2022-08-12T23:25:55.568Z,21.58
2022-08-12T23:28:53.379Z,21.60
2022-08-12T23:32:02.669Z,21.57
2022-08-12T23:34:47.895Z,21.64
2022-08-12T23:37:47.252Z,21.61
2022-08-12T23:40:38.556Z,21.66
2022-08-12T23:43:19.912Z,21.63
2022-08-12T23:46:11.570Z,21.60
2022-08-12T23:48:54.113Z,21.62
2022-08-12T23:51:43.508Z,21.61
2022-08-12T23:54:44.099Z,21.60
2022-08-12T23:57:26.637Z,21.58
